Aviation Digital Data Service (ADDS)

Output produced by TAFs form (0556 UTC 06 March 2015)
found at http://aviationweather.gov/adds/tafs/
 
KEGE 060526Z 0606/0706 00000KT P6SM SCT250 
     FM062000 23009KT P6SM SCT120 SCT250 
     FM070200 09005KT P6SM SCT250 AMD LTD TO CLD VIS AND WIND TIL 061400